Time;durP1;ratioP1;P1;durP2;ratioP2;P2;SDS_P1;SDS_P2;PMS_P1;PMS_P2;Temp;Humidity;BMP_temperature;BMP_pressure;BME280_temperature;BME280_humidity;BME280_pressure;Samples;Min_cycle;Max_cycle;Signal;HPM_P1;HPM_P2
2022/03/01 00:01:26;;;;;;;;;;;;;;;21.43;42.69;102185.41;7287169;19;152403;-53
2022/03/01 00:03:53;;;;;;;;;;;;;;;21.40;42.87;102181.19;7277904;19;154314;-52
2022/03/01 00:06:20;;;;;;;;;;;;;;;21.38;43.07;102177.81;7280105;19;152144;-53
2022/03/01 00:08:47;;;;;;;;;;;;;;;21.37;43.33;102180.91;7279854;19;153522;-53
2022/03/01 00:11:14;;;;;;;;;;;;;;;21.36;43.23;102173.59;7277799;19;154211;-52
2022/03/01 00:13:41;;;;;;;;;;;;;;;21.35;43.13;102174.75;7281326;19;152867;-53
2022/03/01 00:16:08;;;;;;;;;;;;;;;21.32;43.53;102172.47;7279176;19;153207;-53
2022/03/01 00:18:36;;;;;;;;;;;;;;;21.30;43.43;102176.41;7278233;19;155489;-52
2022/03/01 00:21:06;;;;;;;;;;;;;;;21.30;43.63;102172.78;7278206;19;151646;-52
2022/03/01 00:23:34;;;;;;;;;;;;;;;21.29;43.39;102176.72;7288521;19;153134;-53
2022/03/01 00:26:01;;;;;;;;;;;;;;;21.28;43.47;102166.59;7280217;19;151944;-52
2022/03/01 00:28:28;;;;;;;;;;;;;;;21.27;43.52;102177.00;7280535;19;152495;-54
2022/03/01 00:30:55;;;;;;;;;;;;;;;21.24;43.58;102183.19;7275287;19;155490;-53
2022/03/01 00:33:22;;;;;;;;;;;;;;;21.24;44.00;102182.34;7281041;19;151793;-52
2022/03/01 00:35:50;;;;;;;;;;;;;;;21.22;43.96;102188.25;7278674;19;151756;-53
2022/03/01 00:38:17;;;;;;;;;;;;;;;21.20;44.07;102193.31;7279108;19;154143;-53
2022/03/01 00:40:44;;;;;;;;;;;;;;;21.20;44.12;102192.47;7280045;19;152243;-54
2022/03/01 00:43:11;;;;;;;;;;;;;;;21.19;44.72;102187.97;7284050;19;153443;-53
2022/03/01 00:45:40;;;;;;;;;;;;;;;21.16;44.79;102189.38;7280272;19;151985;-53
2022/03/01 00:48:08;;;;;;;;;;;;;;;21.16;45.06;102182.91;7278030;19;152104;-53
2022/03/01 00:50:35;;;;;;;;;;;;;;;21.15;45.17;102184.03;7275066;19;153063;-53
2022/03/01 00:53:04;;;;;;;;;;;;;;;21.13;44.74;102189.09;7275943;19;151834;-54
2022/03/01 00:55:31;;;;;;;;;;;;;;;21.11;44.92;102180.94;7276082;19;153420;-53
2022/03/01 00:57:58;;;;;;;;;;;;;;;21.10;45.18;102187.66;7273277;19;153773;-52
2022/03/01 01:00:25;;;;;;;;;;;;;;;21.09;45.05;102180.34;7272076;19;152110;-53
2022/03/01 01:02:52;;;;;;;;;;;;;;;21.08;45.16;102189.06;7277521;19;153236;-52
2022/03/01 01:05:19;;;;;;;;;;;;;;;21.07;45.06;102193.00;7282271;19;153566;-53
2022/03/01 01:07:47;;;;;;;;;;;;;;;21.05;45.28;102187.66;7274110;19;152355;-53
2022/03/01 01:10:14;;;;;;;;;;;;;;;21.05;45.37;102184.00;7271819;19;153466;-52
2022/03/01 01:12:41;;;;;;;;;;;;;;;21.03;45.36;102187.09;7276291;19;151599;-52
2022/03/01 01:15:10;;;;;;;;;;;;;;;21.01;45.10;102180.94;7274550;19;153707;-53
2022/03/01 01:17:37;;;;;;;;;;;;;;;21.01;45.33;102188.50;7275180;19;153468;-53
2022/03/01 01:20:05;;;;;;;;;;;;;;;21.01;45.14;102194.13;7274848;19;151818;-53
2022/03/01 01:25:11;;;;;;;;;;;;;;;20.97;45.17;102193.00;7283700;19;153673;-53
2022/03/01 01:27:40;;;;;;;;;;;;;;;20.96;45.57;102194.13;7289352;19;152475;-53
2022/03/01 01:30:09;;;;;;;;;;;;;;;20.95;45.60;102195.25;7282980;19;154302;-52
2022/03/01 01:32:36;;;;;;;;;;;;;;;20.91;45.23;102189.34;7281366;19;151889;-52
2022/03/01 01:35:04;;;;;;;;;;;;;;;20.86;45.70;102192.16;7281841;19;153288;-53
2022/03/01 01:37:31;;;;;;;;;;;;;;;20.88;45.70;102194.69;7281765;19;154281;-53
2022/03/01 01:39:58;;;;;;;;;;;;;;;20.85;45.43;102196.94;7279688;19;152122;-53
2022/03/01 01:42:25;;;;;;;;;;;;;;;20.83;45.29;102199.19;7283345;19;153429;-52
2022/03/01 01:44:52;;;;;;;;;;;;;;;20.80;45.68;102202.53;7278670;19;153637;-54
2022/03/01 01:47:39;;;;;;;;;;;;;;;20.81;45.28;102200.56;7282768;19;151675;-53
2022/03/01 01:50:07;;;;;;;;;;;;;;;20.77;45.48;102200.31;7288008;19;153193;-53
2022/03/01 01:52:34;;;;;;;;;;;;;;;20.74;45.73;102189.63;7118630;19;3162692;-53
2022/03/01 01:55:01;;;;;;;;;;;;;;;20.75;45.71;102193.28;7284722;19;151983;-53
2022/03/01 01:57:28;;;;;;;;;;;;;;;20.73;45.34;102196.38;7281024;19;154321;-54
2022/03/01 01:59:56;;;;;;;;;;;;;;;20.71;45.71;102198.63;7280763;19;152031;-53
2022/03/01 02:02:24;;;;;;;;;;;;;;;20.69;45.46;102191.59;7282029;19;152849;-52
2022/03/01 02:04:51;;;;;;;;;;;;;;;20.69;45.83;102189.63;7284446;19;154217;-52
2022/03/01 02:07:18;;;;;;;;;;;;;;;20.67;45.70;102191.03;7282407;19;152111;-53
2022/03/01 02:09:45;;;;;;;;;;;;;;;20.66;45.80;102193.00;7281765;19;153302;-53
2022/03/01 02:12:12;;;;;;;;;;;;;;;20.65;45.68;102193.28;7290775;19;155027;-53
2022/03/01 02:14:40;;;;;;;;;;;;;;;20.64;45.53;102200.84;7283544;19;154694;-53
2022/03/01 02:17:08;;;;;;;;;;;;;;;20.64;45.98;102195.22;7282219;19;154238;-53
2022/03/01 02:19:36;;;;;;;;;;;;;;;20.63;45.93;102190.72;7283015;19;151658;-52
2022/03/01 02:22:05;;;;;;;;;;;;;;;20.60;45.82;102187.66;7280778;19;152777;-54
2022/03/01 02:24:32;;;;;;;;;;;;;;;20.59;45.76;102189.59;7282346;19;155459;-53
2022/03/01 02:27:01;;;;;;;;;;;;;;;20.57;46.16;102189.06;7282463;19;151944;-53
2022/03/01 02:29:30;;;;;;;;;;;;;;;20.55;45.83;102196.91;7283940;19;153473;-54
2022/03/01 02:32:00;;;;;;;;;;;;;;;20.55;46.20;102193.25;7280486;19;154016;-55
2022/03/01 02:34:27;;;;;;;;;;;;;;;20.52;45.85;102194.66;7288966;19;151644;-55
2022/03/01 02:36:54;;;;;;;;;;;;;;;20.50;45.96;102188.47;7280592;19;155838;-53
2022/03/01 02:39:21;;;;;;;;;;;;;;;20.50;46.27;102188.47;7283591;19;152192;-52
2022/03/01 02:41:48;;;;;;;;;;;;;;;20.47;45.90;102194.66;7282460;19;152805;-52
2022/03/01 02:44:15;;;;;;;;;;;;;;;20.47;46.40;102191.84;7280893;19;156172;-53
2022/03/01 02:46:43;;;;;;;;;;;;;;;20.45;46.25;102185.66;7281822;19;151978;-53
2022/03/01 02:49:10;;;;;;;;;;;;;;;20.44;46.37;102195.22;7282872;19;153507;-53
2022/03/01 02:51:37;;;;;;;;;;;;;;;20.42;46.32;102194.63;7280857;19;154202;-52
2022/03/01 02:54:05;;;;;;;;;;;;;;;20.40;46.30;102194.06;7289512;19;151889;-52
2022/03/01 02:56:33;;;;;;;;;;;;;;;20.39;46.28;102196.03;7280663;19;153988;-53
2022/03/01 02:59:00;;;;;;;;;;;;;;;20.38;46.43;102199.13;7281061;19;151823;-53
2022/03/01 03:01:27;;;;;;;;;;;;;;;20.36;46.31;102195.72;7280650;19;153203;-53
2022/03/01 03:03:55;;;;;;;;;;;;;;;20.34;46.41;102192.38;7280665;19;153615;-53
2022/03/01 03:06:22;;;;;;;;;;;;;;;20.32;46.52;102187.03;7282830;19;152000;-53
2022/03/01 03:08:49;;;;;;;;;;;;;;;20.31;46.79;102192.91;7281535;19;153450;-53
2022/03/01 03:11:17;;;;;;;;;;;;;;;20.30;46.62;102196.88;7282573;19;153373;-52
2022/03/01 03:13:44;;;;;;;;;;;;;;;20.29;47.08;102204.41;7282579;19;151843;-53
2022/03/01 03:16:11;;;;;;;;;;;;;;;20.27;46.77;102203.81;7288792;19;153448;-53
2022/03/01 03:18:38;;;;;;;;;;;;;;;20.27;47.31;102197.38;7280011;19;151836;-54
2022/03/01 03:21:05;;;;;;;;;;;;;;;20.25;47.28;102178.00;7276755;19;152804;-53
2022/03/01 03:23:32;;;;;;;;;;;;;;;20.23;47.07;102173.78;7281306;19;154168;-53
2022/03/01 03:25:59;;;;;;;;;;;;;;;20.23;47.29;102173.78;7281161;19;152149;-54
2022/03/01 03:28:26;;;;;;;;;;;;;;;20.21;47.35;102170.44;7280084;19;152572;-53
2022/03/01 03:30:53;;;;;;;;;;;;;;;20.18;47.60;102177.41;7280369;19;153426;-52
2022/03/01 03:33:21;;;;;;;;;;;;;;;20.20;47.56;102179.94;7281633;19;151838;-52
2022/03/01 03:35:48;;;;;;;;;;;;;;;20.18;47.52;102173.75;7280677;19;154478;-54
2022/03/01 03:38:15;;;;;;;;;;;;;;;20.17;47.75;102172.09;7287304;19;153518;-52
2022/03/01 03:40:42;;;;;;;;;;;;;;;20.15;47.57;102171.50;7275949;19;153613;-53
2022/03/01 03:43:09;;;;;;;;;;;;;;;20.13;47.61;102173.75;7280036;19;153424;-53
2022/03/01 03:45:36;;;;;;;;;;;;;;;20.13;47.93;102188.63;7279623;19;151619;-52
2022/03/01 03:48:03;;;;;;;;;;;;;;;20.12;47.88;102183.31;7282538;19;155131;-53
2022/03/01 03:50:30;;;;;;;;;;;;;;;20.10;47.89;102182.72;7280784;19;153878;-53
2022/03/01 03:52:57;;;;;;;;;;;;;;;20.10;47.82;102192.00;7282875;19;151926;-53
2022/03/01 03:55:24;;;;;;;;;;;;;;;20.09;47.78;102195.91;7281171;19;155069;-53
2022/03/01 03:57:51;;;;;;;;;;;;;;;20.09;47.62;102190.28;7279551;19;153877;-53
2022/03/01 04:00:18;;;;;;;;;;;;;;;20.08;47.62;102199.00;7286125;19;152271;-52
2022/03/01 04:02:51;;;;;;;;;;;;;;;20.08;47.93;102197.00;7280812;19;153619;-52
2022/03/01 04:05:19;;;;;;;;;;;;;;;20.06;47.67;102198.41;7281403;19;152342;-53
2022/03/01 04:07:47;;;;;;;;;;;;;;;20.06;47.52;102201.22;7280401;19;153950;-53
2022/03/01 04:10:15;;;;;;;;;;;;;;;20.04;47.57;102206.25;7280381;19;153666;-52
2022/03/01 04:12:45;;;;;;;;;;;;;;;20.02;47.87;102208.50;7280579;19;151988;-52
2022/03/01 04:15:18;;;;;;;;;;;;;;;20.01;47.96;102206.81;7280974;19;151957;-53
2022/03/01 04:17:45;;;;;;;;;;;;;;;19.99;47.50;102216.34;7279665;19;152516;-54
2022/03/01 04:20:12;;;;;;;;;;;;;;;19.99;47.80;102205.13;7279196;19;151779;-52
2022/03/01 04:22:40;;;;;;;;;;;;;;;19.97;47.60;102207.38;7285523;19;153611;-53
2022/03/01 04:25:09;;;;;;;;;;;;;;;19.96;48.02;102219.69;7281836;19;151851;-53
2022/03/01 04:27:36;;;;;;;;;;;;;;;19.97;47.53;102212.13;7280747;19;153110;-53
2022/03/01 04:30:04;;;;;;;;;;;;;;;19.95;47.85;102218.00;7279660;19;152537;-54
2022/03/01 04:32:31;;;;;;;;;;;;;;;19.93;48.00;102222.22;7279829;19;152316;-53
2022/03/01 04:34:58;;;;;;;;;;;;;;;19.91;47.88;102222.47;7281165;19;153626;-53
2022/03/01 04:37:25;;;;;;;;;;;;;;;19.89;48.08;102215.47;7279026;19;153730;-53
2022/03/01 04:39:52;;;;;;;;;;;;;;;19.88;47.86;102216.59;7279675;19;152122;-53
2022/03/01 04:42:18;;;;;;;;;;;;;;;19.86;47.85;102205.63;7280874;19;154736;-53
2022/03/01 04:44:45;;;;;;;;;;;;;;;19.83;47.87;102213.75;7286949;19;151915;-52
2022/03/01 04:47:14;;;;;;;;;;;;;;;19.83;47.96;102214.59;7280167;19;153632;-53
2022/03/01 04:49:41;;;;;;;;;;;;;;;19.82;47.79;102214.84;7278008;19;151866;-52
2022/03/01 04:52:10;;;;;;;;;;;;;;;19.81;47.98;102214.00;7277007;19;151630;-52
2022/03/01 04:54:37;;;;;;;;;;;;;;;19.79;48.02;102219.06;7279262;19;153711;-52
2022/03/01 04:57:04;;;;;;;;;;;;;;;19.79;48.17;102221.88;7276302;19;154313;-53
2022/03/01 04:59:31;;;;;;;;;;;;;;;19.78;48.03;102219.31;7281454;19;151550;-53
2022/03/01 05:01:58;;;;;;;;;;;;;;;19.77;48.06;102224.09;7278276;19;153745;-52
2022/03/01 05:04:25;;;;;;;;;;;;;;;19.75;48.07;102225.50;7284662;19;152509;-53
2022/03/01 05:06:52;;;;;;;;;;;;;;;19.74;48.06;102219.03;7281385;19;152854;-53
2022/03/01 05:09:21;;;;;;;;;;;;;;;19.74;48.03;102219.03;7276933;19;154540;-53
2022/03/01 05:11:49;;;;;;;;;;;;;;;19.73;48.00;102227.72;7280871;19;151980;-52
2022/03/01 05:14:16;;;;;;;;;;;;;;;19.69;48.23;102223.75;7277547;19;153316;-52
2022/03/01 05:16:45;;;;;;;;;;;;;;;19.68;47.77;102220.13;7277665;19;154116;-52
2022/03/01 05:19:13;;;;;;;;;;;;;;;19.68;48.30;102214.50;7277693;19;152032;-53
2022/03/01 05:21:41;;;;;;;;;;;;;;;19.66;48.14;102215.91;7277000;19;153664;-53
2022/03/01 05:24:07;;;;;;;;;;;;;;;19.67;48.15;102214.78;7278622;19;152508;-53
2022/03/01 05:26:36;;;;;;;;;;;;;;;19.65;47.74;102223.47;7288073;19;152110;-53
2022/03/01 05:29:02;;;;;;;;;;;;;;;19.64;47.78;102224.56;7278522;19;154432;-53
2022/03/01 05:31:29;;;;;;;;;;;;;;;19.62;48.33;102217.56;7277826;19;152095;-52
2022/03/01 05:33:56;;;;;;;;;;;;;;;19.62;48.24;102223.19;7278499;19;152873;-53
2022/03/01 05:36:23;;;;;;;;;;;;;;;19.61;48.02;102229.88;7276417;19;154078;-52
2022/03/01 05:38:50;;;;;;;;;;;;;;;19.65;47.99;102219.81;7280024;19;151933;-52
2022/03/01 05:41:17;;;;;;;;;;;;;;;19.67;47.96;102214.78;7277220;19;153098;-52
2022/03/01 05:43:45;;;;;;;;;;;;;;;19.69;48.33;102219.00;7279334;19;153872;-52
2022/03/01 05:46:15;;;;;;;;;;;;;;;19.72;48.01;102214.78;7279924;19;151703;-52
2022/03/01 05:48:45;;;;;;;;;;;;;;;19.76;47.90;102215.97;7285553;19;154015;-52
2022/03/01 05:51:11;;;;;;;;;;;;;;;19.78;48.23;102220.19;7275364;19;152450;-53
2022/03/01 05:53:38;;;;;;;;;;;;;;;19.82;48.25;102228.88;7278050;19;152563;-52
2022/03/01 05:56:05;;;;;;;;;;;;;;;19.86;48.54;102232.81;7277601;19;153462;-54
2022/03/01 05:58:32;;;;;;;;;;;;;;;19.90;48.40;102232.00;7278984;19;152121;-53
2022/03/01 06:01:00;;;;;;;;;;;;;;;19.95;48.77;102229.22;7277578;19;153066;-52
2022/03/01 06:03:27;;;;;;;;;;;;;;;20.01;48.65;102243.28;7276230;19;154013;-53
2022/03/01 06:05:54;;;;;;;;;;;;;;;20.06;48.55;102243.31;7278418;19;151645;-52
2022/03/01 06:08:21;;;;;;;;;;;;;;;20.13;48.86;102249.50;7280466;19;154362;-52
2022/03/01 06:10:48;;;;;;;;;;;;;;;20.18;48.59;102249.53;7291054;19;154314;-53
2022/03/01 06:13:15;;;;;;;;;;;;;;;20.24;49.15;102251.25;7285713;19;153356;-53
2022/03/01 06:15:42;;;;;;;;;;;;;;;20.30;49.13;102247.38;7283653;19;153888;-53
2022/03/01 06:18:09;;;;;;;;;;;;;;;20.35;48.39;102256.63;7283474;19;151767;-53
2022/03/01 06:20:36;;;;;;;;;;;;;;;20.41;48.45;102257.50;7284367;19;153632;-53
2022/03/01 06:23:03;;;;;;;;;;;;;;;20.47;48.00;102258.38;7281689;19;152231;-53
2022/03/01 06:25:30;;;;;;;;;;;;;;;20.52;48.06;102262.06;7284698;19;151831;-53
2022/03/01 06:27:56;;;;;;;;;;;;;;;20.57;47.80;102259.25;7285311;19;152731;-52
2022/03/01 06:30:23;;;;;;;;;;;;;;;20.63;48.04;102266.56;7282666;19;153575;-52
2022/03/01 06:32:50;;;;;;;;;;;;;;;20.69;47.84;102267.41;7291965;19;151807;-53
2022/03/01 06:35:17;;;;;;;;;;;;;;;20.74;47.75;102267.44;7284213;19;153294;-54
2022/03/01 06:37:51;;;;;;;;;;;;;;;20.78;47.69;102269.41;7283838;19;152054;-52
2022/03/01 06:40:19;;;;;;;;;;;;;;;20.84;47.24;102271.13;7283092;19;153139;-53
2022/03/01 06:42:48;;;;;;;;;;;;;;;20.91;48.15;102270.81;7282641;19;155290;-52
2022/03/01 06:45:15;;;;;;;;;;;;;;;20.96;47.93;102284.88;7284557;19;151658;-53
2022/03/01 06:47:42;;;;;;;;;;;;;;;21.02;47.49;102274.50;7282444;19;153288;-53
2022/03/01 06:50:10;;;;;;;;;;;;;;;21.06;47.37;102281.25;7283792;19;154016;-53
2022/03/01 06:52:37;;;;;;;;;;;;;;;21.11;47.50;102286.88;7288498;19;152118;-53
2022/03/01 06:55:09;;;;;;;;;;;;;;;21.14;46.97;102295.63;7283960;19;153895;-52
2022/03/01 06:57:40;;;;;;;;;;;;;;;21.20;46.85;102300.13;7282150;19;151685;-53
2022/03/01 07:00:08;;;;;;;;;;;;;;;21.24;47.02;102297.59;7282697;19;153141;-53
2022/03/01 07:02:38;;;;;;;;;;;;;;;21.29;46.83;102301.25;7277766;19;156693;-53
2022/03/01 07:05:07;;;;;;;;;;;;;;;21.35;46.91;102304.06;7283453;19;152391;-52
2022/03/01 07:07:34;;;;;;;;;;;;;;;21.40;46.78;102309.66;7281885;19;153166;-52
2022/03/01 07:10:02;;;;;;;;;;;;;;;21.45;46.86;102313.34;7281061;19;152629;-53
2022/03/01 07:12:29;;;;;;;;;;;;;;;21.49;47.01;102316.41;7284194;19;151693;-53
2022/03/01 07:14:56;;;;;;;;;;;;;;;21.51;47.14;102317.00;7289622;19;155365;-53
2022/03/01 07:17:24;;;;;;;;;;;;;;;21.59;46.54;102327.66;7282525;19;151554;-53
2022/03/01 07:19:52;;;;;;;;;;;;;;;21.63;46.42;102331.59;7280794;19;154217;-53
2022/03/01 07:22:19;;;;;;;;;;;;;;;21.55;45.41;102330.22;7279581;19;154243;-53
2022/03/01 07:24:46;;;;;;;;;;;;;;;21.61;44.79;102333.88;7281432;19;151595;-53
2022/03/01 07:27:13;;;;;;;;;;;;;;;21.64;44.87;102334.13;7281125;19;152523;-53
2022/03/01 07:29:40;;;;;;;;;;;;;;;21.67;44.50;102333.56;7280263;19;153377;-54
2022/03/01 07:32:07;;;;;;;;;;;;;;;21.70;44.46;102344.28;7279509;19;151903;-54
2022/03/01 07:34:35;;;;;;;;;;;;;;;21.72;44.58;102353.25;7281301;19;153170;-53
2022/03/01 07:37:02;;;;;;;;;;;;;;;21.74;44.18;102358.63;7288050;19;155234;-53
2022/03/01 07:39:29;;;;;;;;;;;;;;;21.75;43.99;102357.50;7283215;19;153216;-53
2022/03/01 07:41:56;;;;;;;;;;;;;;;21.76;43.88;102353.53;7277627;19;154307;-53
2022/03/01 07:44:23;;;;;;;;;;;;;;;21.77;43.64;102360.84;7282755;19;151839;-53
2022/03/01 07:46:50;;;;;;;;;;;;;;;21.77;43.44;102360.00;7280436;19;152977;-53
2022/03/01 07:49:17;;;;;;;;;;;;;;;21.58;42.48;102370.97;7279605;19;153465;-53
2022/03/01 07:51:45;;;;;;;;;;;;;;;21.02;42.21;102365.28;7279864;19;152208;-53
2022/03/01 07:54:12;;;;;;;;;;;;;;;20.73;41.97;102372.47;7281076;19;152849;-53
2022/03/01 07:56:40;;;;;;;;;;;;;;;20.53;42.26;102376.06;7279268;19;154143;-53
2022/03/01 07:59:07;;;;;;;;;;;;;;;20.20;43.44;102374.44;7289907;19;151781;-53
2022/03/01 08:01:34;;;;;;;;;;;;;;;20.26;43.05;102378.13;7280140;19;154896;-54
2022/03/01 08:04:01;;;;;;;;;;;;;;;20.32;42.88;102382.66;7279672;19;152095;-53
2022/03/01 08:06:29;;;;;;;;;;;;;;;20.22;43.26;102379.75;7280383;19;152126;-53
2022/03/01 08:08:56;;;;;;;;;;;;;;;20.18;43.53;102381.41;7281142;19;154375;-53
2022/03/01 08:11:23;;;;;;;;;;;;;;;20.10;43.87;102376.31;7279743;19;151836;-53
2022/03/01 08:13:49;;;;;;;;;;;;;;;20.04;43.93;102367.03;7281921;19;152552;-53
2022/03/01 08:16:16;;;;;;;;;;;;;;;19.95;44.11;102360.22;7280182;19;153958;-53
2022/03/01 08:18:44;;;;;;;;;;;;;;;19.86;44.34;102368.31;7282481;19;152830;-53
2022/03/01 08:23:54;;;;;;;;;;;;;;;19.64;44.92;102375.97;7281841;19;151911;-53
2022/03/01 08:26:21;;;;;;;;;;;;;;;19.65;45.31;102382.44;7281426;19;152301;-53
2022/03/01 08:28:49;;;;;;;;;;;;;;;19.87;46.83;102395.25;7281457;19;153860;-53
2022/03/01 08:31:16;;;;;;;;;;;;;;;19.95;45.44;102386.31;7277585;19;152408;-53
2022/03/01 08:33:44;;;;;;;;;;;;;;;20.02;45.39;102382.44;7282020;19;153352;-53
2022/03/01 08:36:16;;;;;;;;;;;;;;;20.07;45.33;102376.88;7278322;19;154034;-53
2022/03/01 08:38:43;;;;;;;;;;;;;;;20.14;45.22;102374.66;7280778;19;151641;-53
2022/03/01 08:41:11;;;;;;;;;;;;;;;20.19;45.53;102371.91;7278843;19;153395;-53
2022/03/01 08:43:38;;;;;;;;;;;;;;;20.23;45.46;102379.50;7285505;19;153577;-53
2022/03/01 08:46:09;;;;;;;;;;;;;;;20.25;45.50;102387.66;7279352;19;153513;-53
2022/03/01 08:48:36;;;;;;;;;;;;;;;20.26;45.48;102394.97;7279349;19;153780;-53
2022/03/01 08:51:13;;;;;;;;;;;;;;;20.27;45.45;102394.69;7279828;19;152074;-53
2022/03/01 08:53:49;;;;;;;;;;;;;;;20.27;45.51;102393.81;7278094;19;152205;-54
2022/03/01 08:56:16;;;;;;;;;;;;;;;20.30;45.36;102393.34;7277318;19;154124;-54
2022/03/01 08:58:44;;;;;;;;;;;;;;;20.30;45.38;102396.16;7246153;19;153113;-53
2022/03/01 09:01:18;;;;;;;;;;;;;;;20.28;45.33;102396.38;7266430;19;152315;-53
2022/03/01 09:03:46;;;;;;;;;;;;;;;20.31;45.05;102389.38;7285168;19;153616;-53
2022/03/01 09:06:13;;;;;;;;;;;;;;;20.32;45.06;102389.13;7278989;19;151910;-53
2022/03/01 09:08:40;;;;;;;;;;;;;;;20.31;45.33;102397.81;7275350;19;152302;-53
2022/03/01 09:11:09;;;;;;;;;;;;;;;20.32;45.10;102405.13;7276340;19;152041;-53
2022/03/01 09:13:36;;;;;;;;;;;;;;;20.31;45.27;102411.84;7276736;19;152682;-53
2022/03/01 09:16:03;;;;;;;;;;;;;;;20.32;44.82;102413.53;7277476;19;153565;-53
2022/03/01 09:18:49;;;;;;;;;;;;;;;20.30;44.97;102413.84;7279007;19;151913;-53
2022/03/01 09:21:16;;;;;;;;;;;;;;;20.31;45.05;102417.47;7278054;19;153704;-53
2022/03/01 09:23:44;;;;;;;;;;;;;;;20.31;44.75;102423.91;7278082;19;154284;-53
2022/03/01 09:26:11;;;;;;;;;;;;;;;20.32;44.69;102425.63;7283645;19;152219;-53
2022/03/01 09:28:39;;;;;;;;;;;;;;;20.30;44.58;102427.88;7275654;19;154267;-53
2022/03/01 09:31:06;;;;;;;;;;;;;;;20.30;44.82;102427.03;7278774;19;152484;-53
2022/03/01 09:33:33;;;;;;;;;;;;;;;20.30;44.79;102430.69;7277479;19;152924;-53
2022/03/01 09:36:01;;;;;;;;;;;;;;;20.30;44.78;102418.59;7277608;19;153493;-54
2022/03/01 09:38:28;;;;;;;;;;;;;;;20.29;44.70;102417.72;7277952;19;153312;-53
2022/03/01 09:40:56;;;;;;;;;;;;;;;20.28;44.39;102426.41;7276381;19;152025;-54
2022/03/01 09:43:23;;;;;;;;;;;;;;;20.25;44.68;102433.41;7277556;19;152155;-53
2022/03/01 09:45:50;;;;;;;;;;;;;;;20.27;44.44;102438.72;7283407;19;151517;-54
2022/03/01 09:48:18;;;;;;;;;;;;;;;20.27;44.28;102445.19;7290217;19;152727;-53
2022/03/01 09:50:46;;;;;;;;;;;;;;;20.29;44.25;102439.31;7283081;19;151927;-53
2022/03/01 09:53:13;;;;;;;;;;;;;;;20.31;44.07;102429.53;7283658;19;153495;-53
2022/03/01 09:55:40;;;;;;;;;;;;;;;20.34;44.04;102440.25;7282602;19;154312;-53
2022/03/01 09:58:08;;;;;;;;;;;;;;;20.36;44.10;102443.59;7283953;19;152036;-52
2022/03/01 10:00:35;;;;;;;;;;;;;;;20.38;44.37;102432.13;7282531;19;153553;-52
2022/03/01 10:03:02;;;;;;;;;;;;;;;20.39;44.04;102431.84;7280462;19;155337;-53
2022/03/01 10:05:32;;;;;;;;;;;;;;;20.40;44.08;102429.88;7284678;19;152510;-53
2022/03/01 10:08:05;;;;;;;;;;;;;;;20.41;43.95;102431.56;7284171;19;152760;-53
2022/03/01 10:10:37;;;;;;;;;;;;;;;20.42;43.90;102422.88;7289336;19;153623;-54
2022/03/01 10:13:04;;;;;;;;;;;;;;;20.43;43.72;102432.16;7284501;19;151686;-52
2022/03/01 10:15:32;;;;;;;;;;;;;;;20.45;44.01;102423.44;7283808;19;152520;-53
2022/03/01 10:18:09;;;;;;;;;;;;;;;20.45;43.82;102427.09;7282840;19;152514;-53
2022/03/01 10:20:36;;;;;;;;;;;;;;;20.46;44.05;102420.38;7284721;19;153693;-53
2022/03/01 10:23:04;;;;;;;;;;;;;;;20.46;43.61;102428.78;7281358;19;152833;-53
2022/03/01 10:25:30;;;;;;;;;;;;;;;20.48;43.98;102420.09;7285038;19;152409;-53
2022/03/01 10:28:01;;;;;;;;;;;;;;;20.48;43.81;102423.75;7283605;19;155810;-53
2022/03/01 10:30:39;;;;;;;;;;;;;;;20.46;43.56;102425.97;7283430;19;153357;-54
2022/03/01 10:33:08;;;;;;;;;;;;;;;20.49;43.79;102435.84;7286972;19;151642;-52
2022/03/01 10:35:37;;;;;;;;;;;;;;;20.48;43.62;102437.81;7282816;19;153541;-53
2022/03/01 10:38:05;;;;;;;;;;;;;;;20.48;43.55;102434.16;7282665;19;152137;-53
2022/03/01 10:40:33;;;;;;;;;;;;;;;20.48;43.84;102432.19;7284571;19;153338;-53
2022/03/01 10:43:01;;;;;;;;;;;;;;;20.48;43.65;102440.59;7280203;19;153461;-54
2022/03/01 10:45:30;;;;;;;;;;;;;;;20.47;43.57;102440.88;7281099;19;152262;-53
2022/03/01 10:47:58;;;;;;;;;;;;;;;20.47;43.57;102435.25;7282429;19;153062;-53
2022/03/01 10:50:25;;;;;;;;;;;;;;;20.47;43.54;102440.88;7279617;19;156038;-53
2022/03/01 10:52:52;;;;;;;;;;;;;;;20.46;43.64;102437.22;7284073;19;151705;-53
2022/03/01 10:55:21;;;;;;;;;;;;;;;20.46;43.73;102445.63;7288690;19;155647;-54
2022/03/01 10:57:58;;;;;;;;;;;;;;;20.46;43.64;102448.44;7284716;19;151821;-53
2022/03/01 11:00:25;;;;;;;;;;;;;;;20.46;43.61;102445.63;7281732;19;155412;-53
2022/03/01 11:02:52;;;;;;;;;;;;;;;20.44;43.35;102442.28;7281788;19;153514;-53
2022/03/01 11:05:19;;;;;;;;;;;;;;;20.44;43.81;102447.88;7283097;19;152882;-53
2022/03/01 11:08:09;;;;;;;;;;;;;;;20.43;43.44;102446.19;7282336;19;154250;-54
2022/03/01 11:10:37;;;;;;;;;;;;;;;20.42;43.43;102455.72;7279579;19;153876;-53
2022/03/01 11:13:06;;;;;;;;;;;;;;;20.42;43.70;102458.53;7281861;19;151983;-53
2022/03/01 11:15:39;;;;;;;;;;;;;;;20.41;43.66;102456.81;7287198;19;152848;-52
2022/03/01 11:18:16;;;;;;;;;;;;;;;20.42;43.21;102461.34;7282075;19;151538;-53
2022/03/01 11:20:44;;;;;;;;;;;;;;;20.39;43.30;102464.69;7283730;19;153056;-53
2022/03/01 11:23:14;;;;;;;;;;;;;;;20.39;43.30;102462.75;7281241;19;156780;-53
2022/03/01 11:25:47;;;;;;;;;;;;;;;20.38;43.45;102466.66;7283812;19;152172;-53
2022/03/01 11:28:16;;;;;;;;;;;;;;;20.36;43.31;102460.44;7281372;19;154297;-53
2022/03/01 11:30:51;;;;;;;;;;;;;;;20.35;43.83;102447.53;7282277;19;153999;-53
2022/03/01 11:33:41;;;;;;;;;;;;;;;20.32;43.45;102456.50;7281482;19;152037;-53
2022/03/01 11:36:08;;;;;;;;;;;;;;;20.32;43.52;102453.69;7281537;19;156560;-53
2022/03/01 11:38:35;;;;;;;;;;;;;;;20.30;43.66;102441.06;7286990;19;154112;-53
2022/03/01 11:41:11;;;;;;;;;;;;;;;20.29;43.36;102445.78;7281428;19;152886;-53
2022/03/01 11:43:38;;;;;;;;;;;;;;;20.27;43.59;102441.53;7277545;19;154121;-53
2022/03/01 11:46:17;;;;;;;;;;;;;;;20.26;43.42;102445.50;7282714;19;151611;-52
2022/03/01 11:48:49;;;;;;;;;;;;;;;20.25;43.71;102440.97;7283279;19;152667;-53
2022/03/01 11:51:16;;;;;;;;;;;;;;;20.22;43.56;102436.75;7277361;19;152778;-53
2022/03/01 11:53:46;;;;;;;;;;;;;;;20.22;43.76;102435.88;7282577;19;151885;-53
2022/03/01 11:56:13;;;;;;;;;;;;;;;20.19;43.51;102431.69;7280148;19;154324;-54
2022/03/01 11:58:46;;;;;;;;;;;;;;;20.17;43.62;102424.66;7278090;19;153536;-54
2022/03/01 12:01:13;;;;;;;;;;;;;;;20.16;43.83;102428.56;7288433;19;151626;-53
2022/03/01 12:03:42;;;;;;;;;;;;;;;20.14;43.87;102425.19;7276198;19;153967;-53
2022/03/01 12:06:09;;;;;;;;;;;;;;;20.12;43.50;102419.00;7278575;19;152246;-53
2022/03/01 12:08:37;;;;;;;;;;;;;;;20.10;43.67;102426.84;7279342;19;155069;-53
2022/03/01 12:11:04;;;;;;;;;;;;;;;20.09;43.65;102420.38;7278761;19;154313;-54
2022/03/01 12:13:34;;;;;;;;;;;;;;;20.07;43.82;102413.34;7279541;19;151756;-53
2022/03/01 12:16:01;;;;;;;;;;;;;;;20.04;44.13;102403.50;7282907;19;152845;-53
2022/03/01 12:18:29;;;;;;;;;;;;;;;20.03;43.90;102400.97;7279600;19;153330;-53
2022/03/01 12:21:00;;;;;;;;;;;;;;;20.01;43.78;102409.66;7280813;19;152354;-53
2022/03/01 12:23:30;;;;;;;;;;;;;;;19.98;44.15;102398.97;7284770;19;151946;-53
2022/03/01 12:26:00;;;;;;;;;;;;;;;19.95;44.09;102403.16;7279636;19;152463;-54
2022/03/01 12:28:36;;;;;;;;;;;;;;;19.94;44.07;102401.47;7279601;19;155340;-52
2022/03/01 12:31:07;;;;;;;;;;;;;;;19.92;44.32;102392.47;7280314;19;155594;-53
2022/03/01 12:33:35;;;;;;;;;;;;;;;19.90;44.44;102403.13;7279910;19;152042;-53
2022/03/01 12:36:03;;;;;;;;;;;;;;;19.89;44.07;102392.19;7279453;19;153448;-53